Time;durP1;ratioP1;P1;durP2;ratioP2;P2;SDS_P1;SDS_P2;PMS_P1;PMS_P2;Temp;Humidity;BMP_temperature;BMP_pressure;BME280_temperature;BME280_humidity;BME280_pressure;Samples;Min_cycle;Max_cycle;Signal;HPM_P1;HPM_P2
2022/09/11 00:01:06;;;;;;;8.83;5.60;;;;;;;;;;1737154;82;21100;-63
2022/09/11 00:03:33;;;;;;;7.85;5.22;;;;;;;;;;1737011;82;22214;-63
2022/09/11 00:06:03;;;;;;;10.98;5.40;;;;;;;;;;1738083;82;21052;-63
2022/09/11 00:08:31;;;;;;;9.53;5.15;;;;;;;;;;1735483;82;21587;-63
2022/09/11 00:11:08;;;;;;;8.50;5.00;;;;;;;;;;1700331;83;21075;-63
2022/09/11 00:13:34;;;;;;;7.97;5.10;;;;;;;;;;1683477;85;21134;-62
2022/09/11 00:16:02;;;;;;;8.45;5.35;;;;;;;;;;1698245;84;21519;-62
2022/09/11 00:18:29;;;;;;;9.85;4.87;;;;;;;;;;1738740;82;21066;-62
2022/09/11 00:20:56;;;;;;;7.53;4.90;;;;;;;;;;1737456;82;21048;-62
2022/09/11 00:23:22;;;;;;;8.50;5.70;;;;;;;;;;1696922;83;21123;-62
2022/09/11 00:25:49;;;;;;;7.62;5.20;;;;;;;;;;1733387;82;21607;-62
2022/09/11 00:28:15;;;;;;;9.53;4.72;;;;;;;;;;1739931;82;21095;-62
2022/09/11 00:30:43;;;;;;;7.58;5.25;;;;;;;;;;1731955;81;21045;-62
2022/09/11 00:33:11;;;;;;;8.08;5.53;;;;;;;;;;1724322;82;21010;-62
2022/09/11 00:35:38;;;;;;;8.98;5.35;;;;;;;;;;1722256;82;21604;-62
2022/09/11 00:38:07;;;;;;;7.50;5.33;;;;;;;;;;1722173;82;21029;-61
2022/09/11 00:40:36;;;;;;;7.15;4.60;;;;;;;;;;1690509;84;21084;-62
2022/09/11 00:43:03;;;;;;;7.55;5.42;;;;;;;;;;1719695;82;21077;-61
2022/09/11 00:45:31;;;;;;;7.65;5.53;;;;;;;;;;1724093;82;21117;-61
2022/09/11 00:47:57;;;;;;;10.00;5.17;;;;;;;;;;1721977;82;21058;-62
2022/09/11 00:50:24;;;;;;;7.72;4.87;;;;;;;;;;1722796;82;21069;-61
2022/09/11 00:52:52;;;;;;;7.70;5.10;;;;;;;;;;1689339;84;21051;-62
2022/09/11 00:55:18;;;;;;;6.30;4.60;;;;;;;;;;1688315;84;21047;-61
2022/09/11 00:57:46;;;;;;;8.88;5.47;;;;;;;;;;1688585;84;21103;-61
2022/09/11 01:00:13;;;;;;;8.23;5.30;;;;;;;;;;1673368;86;21068;-62
2022/09/11 01:05:32;;;;;;;10.18;5.37;;;;;;;;;;1672329;80;75029;-67
2022/09/11 01:07:57;;;;;;;7.15;5.72;;;;;;;;;;1660689;85;21120;-67
2022/09/11 01:10:31;;;;;;;6.37;4.78;;;;;;;;;;1655071;86;21080;-67
2022/09/11 01:13:11;;;;;;;8.20;5.62;;;;;;;;;;1712175;83;21534;-66
2022/09/11 01:15:42;;;;;;;9.33;5.50;;;;;;;;;;1714243;82;21070;-66
2022/09/11 01:18:12;;;;;;;9.45;5.95;;;;;;;;;;1713071;83;21028;-66
2022/09/11 01:20:47;;;;;;;8.43;5.47;;;;;;;;;;1713455;83;21052;-66
2022/09/11 01:23:27;;;;;;;8.93;5.40;;;;;;;;;;1713099;83;21055;-66
2022/09/11 01:25:58;;;;;;;7.03;4.95;;;;;;;;;;1714109;82;21024;-66
2022/09/11 01:28:26;;;;;;;7.78;4.97;;;;;;;;;;1713407;83;21063;-66
2022/09/11 01:30:55;;;;;;;7.83;4.80;;;;;;;;;;1713978;83;21040;-69
2022/09/11 01:33:27;;;;;;;7.28;5.15;;;;;;;;;;1713640;83;21063;-67
2022/09/11 01:35:55;;;;;;;9.18;5.45;;;;;;;;;;1716990;82;21016;-67
2022/09/11 01:38:32;;;;;;;8.05;5.17;;;;;;;;;;1713202;82;21537;-67
2022/09/11 01:41:00;;;;;;;7.75;5.65;;;;;;;;;;1713505;83;21095;-66
2022/09/11 01:43:30;;;;;;;6.72;5.37;;;;;;;;;;1714165;83;20997;-67
2022/09/11 01:45:58;;;;;;;7.45;5.33;;;;;;;;;;1714006;82;20996;-67
2022/09/11 01:48:25;;;;;;;5.85;4.53;;;;;;;;;;1716903;82;21057;-67
2022/09/11 01:50:54;;;;;;;7.72;5.37;;;;;;;;;;1714372;83;21310;-67
2022/09/11 01:53:22;;;;;;;7.72;4.87;;;;;;;;;;1712582;83;21535;-67
2022/09/11 01:55:50;;;;;;;6.22;4.42;;;;;;;;;;1712864;83;21040;-67
2022/09/11 01:58:20;;;;;;;6.20;4.87;;;;;;;;;;1713678;82;21526;-67
2022/09/11 02:00:48;;;;;;;8.18;5.03;;;;;;;;;;1714473;82;21480;-67
2022/09/11 02:03:16;;;;;;;7.80;5.40;;;;;;;;;;1702803;82;21161;-67
2022/09/11 02:05:44;;;;;;;6.12;5.05;;;;;;;;;;1683304;84;21097;-67
2022/09/11 02:08:13;;;;;;;8.60;5.20;;;;;;;;;;1677506;85;21105;-66
2022/09/11 02:10:45;;;;;;;8.73;5.20;;;;;;;;;;1681674;84;21034;-66
2022/09/11 02:13:20;;;;;;;8.73;5.47;;;;;;;;;;1680091;85;21060;-66
2022/09/11 02:15:48;;;;;;;8.73;5.40;;;;;;;;;;1679725;85;21120;-65
2022/09/11 02:18:17;;;;;;;7.90;4.83;;;;;;;;;;1680848;85;21056;-68
2022/09/11 02:20:46;;;;;;;5.92;4.40;;;;;;;;;;1677382;85;21100;-66
2022/09/11 02:23:11;;;;;;;5.87;4.53;;;;;;;;;;1682751;85;21091;-66
2022/09/11 02:25:38;;;;;;;6.45;5.00;;;;;;;;;;1680370;85;21072;-67
2022/09/11 02:28:05;;;;;;;6.15;4.55;;;;;;;;;;1679962;85;21076;-66
2022/09/11 02:30:32;;;;;;;5.12;4.17;;;;;;;;;;1679463;84;21088;-66
2022/09/11 02:32:58;;;;;;;7.10;4.80;;;;;;;;;;1680897;85;21060;-66
2022/09/11 02:35:26;;;;;;;6.75;4.30;;;;;;;;;;1678833;85;21109;-66
2022/09/11 02:38:00;;;;;;;6.20;4.37;;;;;;;;;;1683677;84;22343;-67
2022/09/11 02:40:28;;;;;;;5.12;4.42;;;;;;;;;;1677289;85;21623;-66
2022/09/11 02:43:02;;;;;;;7.60;4.78;;;;;;;;;;1676219;85;21049;-66
2022/09/11 02:45:48;;;;;;;6.58;4.03;;;;;;;;;;1681486;84;21112;-66
2022/09/11 02:48:19;;;;;;;4.72;3.83;;;;;;;;;;1681213;85;21587;-67
2022/09/11 02:50:54;;;;;;;5.33;4.10;;;;;;;;;;1678850;85;21121;-67
2022/09/11 02:53:41;;;;;;;6.35;4.10;;;;;;;;;;1681252;85;21076;-67
2022/09/11 02:56:09;;;;;;;5.58;4.00;;;;;;;;;;1678567;84;22291;-67
2022/09/11 02:58:42;;;;;;;4.03;3.37;;;;;;;;;;1688615;85;21092;-67
2022/09/11 03:01:09;;;;;;;5.83;3.75;;;;;;;;;;1687915;85;21519;-67
2022/09/11 03:03:38;;;;;;;4.97;4.08;;;;;;;;;;1695386;83;21108;-67
2022/09/11 03:06:07;;;;;;;5.05;3.98;;;;;;;;;;1710792;83;21057;-67
2022/09/11 03:08:34;;;;;;;5.08;3.50;;;;;;;;;;1664141;85;21073;-67
2022/09/11 03:11:00;;;;;;;4.03;3.10;;;;;;;;;;1693729;84;21074;-67
2022/09/11 03:13:27;;;;;;;3.22;2.60;;;;;;;;;;1682811;84;21572;-67
2022/09/11 03:15:53;;;;;;;2.90;2.15;;;;;;;;;;1631976;86;21020;-67
2022/09/11 03:18:19;;;;;;;1.92;1.70;;;;;;;;;;1651697;87;21121;-67
2022/09/11 03:20:48;;;;;;;2.20;1.50;;;;;;;;;;1677356;85;21086;-69
2022/09/11 03:23:15;;;;;;;1.98;1.55;;;;;;;;;;1711939;84;21041;-67
2022/09/11 03:25:41;;;;;;;2.70;1.60;;;;;;;;;;1711016;83;21094;-67
2022/09/11 03:28:08;;;;;;;2.42;1.70;;;;;;;;;;1702222;84;21055;-67
2022/09/11 03:30:35;;;;;;;2.72;1.60;;;;;;;;;;1681738;85;21060;-67
2022/09/11 03:33:01;;;;;;;2.37;1.70;;;;;;;;;;1681873;85;21086;-67
2022/09/11 03:35:27;;;;;;;3.47;2.08;;;;;;;;;;1701414;82;21061;-67
2022/09/11 03:37:54;;;;;;;2.90;1.70;;;;;;;;;;1710982;84;21089;-67
2022/09/11 03:40:20;;;;;;;2.80;1.90;;;;;;;;;;1711959;84;20995;-67
2022/09/11 03:42:46;;;;;;;2.05;1.85;;;;;;;;;;1711587;84;21011;-67
2022/09/11 03:45:13;;;;;;;3.15;2.10;;;;;;;;;;1711681;83;20998;-67
2022/09/11 03:47:40;;;;;;;2.67;1.87;;;;;;;;;;1692736;84;21098;-67
2022/09/11 03:50:07;;;;;;;2.30;1.90;;;;;;;;;;1710826;84;21012;-66
2022/09/11 03:52:35;;;;;;;1.70;1.52;;;;;;;;;;1681973;85;21578;-67
2022/09/11 03:55:02;;;;;;;2.60;2.00;;;;;;;;;;1692872;83;21213;-67
2022/09/11 03:57:28;;;;;;;2.60;1.90;;;;;;;;;;1711161;84;21510;-67
2022/09/11 03:59:55;;;;;;;2.62;2.12;;;;;;;;;;1691432;84;21070;-67
2022/09/11 04:02:22;;;;;;;3.80;2.00;;;;;;;;;;1711811;84;21094;-67
2022/09/11 04:04:49;;;;;;;3.10;1.87;;;;;;;;;;1705840;83;21056;-67
2022/09/11 04:07:17;;;;;;;4.65;2.00;;;;;;;;;;1695082;85;21052;-67
2022/09/11 04:09:45;;;;;;;2.05;1.75;;;;;;;;;;1694842;85;21060;-67
2022/09/11 04:12:12;;;;;;;3.62;1.90;;;;;;;;;;1662101;86;21084;-67
2022/09/11 04:14:38;;;;;;;2.62;1.90;;;;;;;;;;1654033;85;21081;-67
2022/09/11 04:17:06;;;;;;;2.00;1.55;;;;;;;;;;1641072;86;21118;-68
2022/09/11 04:19:34;;;;;;;2.20;1.80;;;;;;;;;;1662275;86;21544;-68
2022/09/11 04:22:02;;;;;;;3.60;1.90;;;;;;;;;;1664415;86;21093;-67
2022/09/11 04:24:28;;;;;;;2.60;1.70;;;;;;;;;;1664938;85;21584;-66
2022/09/11 04:26:55;;;;;;;2.00;1.80;;;;;;;;;;1664893;86;21065;-68
2022/09/11 04:29:23;;;;;;;3.37;2.30;;;;;;;;;;1661923;85;22215;-67
2022/09/11 04:31:50;;;;;;;1.85;1.70;;;;;;;;;;1664831;86;21112;-68
2022/09/11 04:34:16;;;;;;;2.08;1.65;;;;;;;;;;1655384;85;21113;-67
2022/09/11 04:36:43;;;;;;;2.42;1.57;;;;;;;;;;1661653;85;21540;-67
2022/09/11 04:39:11;;;;;;;2.33;1.60;;;;;;;;;;1633836;88;21061;-67
2022/09/11 04:41:37;;;;;;;1.75;1.50;;;;;;;;;;1628178;87;21171;-67
2022/09/11 04:44:03;;;;;;;1.87;1.50;;;;;;;;;;1660359;85;21071;-66
2022/09/11 04:46:30;;;;;;;1.50;1.40;;;;;;;;;;1665687;85;21100;-68
2022/09/11 04:49:05;;;;;;;1.60;1.50;;;;;;;;;;1630385;86;21645;-68
2022/09/11 04:51:30;;;;;;;1.95;1.62;;;;;;;;;;1643141;86;21598;-67
2022/09/11 04:53:58;;;;;;;2.25;1.70;;;;;;;;;;1649348;85;21059;-67
2022/09/11 04:56:28;;;;;;;1.55;1.45;;;;;;;;;;1649010;86;21105;-68
2022/09/11 04:58:56;;;;;;;1.60;1.50;;;;;;;;;;1646479;86;21104;-68
2022/09/11 05:01:24;;;;;;;1.45;1.35;;;;;;;;;;1648591;86;21083;-67
2022/09/11 05:03:52;;;;;;;3.75;1.50;;;;;;;;;;1662057;85;21138;-67
2022/09/11 05:06:19;;;;;;;2.95;1.67;;;;;;;;;;1669272;85;21006;-67
2022/09/11 05:08:45;;;;;;;1.67;1.55;;;;;;;;;;1656164;87;21547;-69
2022/09/11 05:11:15;;;;;;;1.37;1.27;;;;;;;;;;1655789;86;21101;-67
2022/09/11 05:13:41;;;;;;;2.50;1.60;;;;;;;;;;1659757;86;21146;-68
2022/09/11 05:16:09;;;;;;;2.27;1.55;;;;;;;;;;1676679;85;21086;-68
2022/09/11 05:18:36;;;;;;;1.62;1.50;;;;;;;;;;1665673;85;21092;-69
2022/09/11 05:21:03;;;;;;;2.20;1.60;;;;;;;;;;1666896;85;21084;-67
2022/09/11 05:23:30;;;;;;;2.65;1.65;;;;;;;;;;1674194;85;21096;-67
2022/09/11 05:25:58;;;;;;;1.90;1.67;;;;;;;;;;1669987;85;21077;-67
2022/09/11 05:28:25;;;;;;;1.92;1.75;;;;;;;;;;1672826;85;21459;-67
2022/09/11 05:30:52;;;;;;;1.80;1.65;;;;;;;;;;1642884;85;21088;-68
2022/09/11 05:33:19;;;;;;;1.98;1.70;;;;;;;;;;1674653;83;21084;-68
2022/09/11 05:35:45;;;;;;;2.00;1.80;;;;;;;;;;1669964;85;21902;-67
2022/09/11 05:38:13;;;;;;;2.45;1.70;;;;;;;;;;1664814;85;21037;-67
2022/09/11 05:40:44;;;;;;;1.55;1.45;;;;;;;;;;1672997;85;21069;-67
2022/09/11 05:43:11;;;;;;;2.72;1.35;;;;;;;;;;1684453;85;21064;-68
2022/09/11 05:45:37;;;;;;;1.20;1.20;;;;;;;;;;1682866;84;21116;-67
2022/09/11 05:48:04;;;;;;;1.40;1.30;;;;;;;;;;1679777;85;21180;-69
2022/09/11 05:50:33;;;;;;;1.30;1.20;;;;;;;;;;1655070;86;21640;-68
2022/09/11 05:53:01;;;;;;;1.55;1.40;;;;;;;;;;1650464;85;21240;-68
2022/09/11 05:55:28;;;;;;;2.10;1.70;;;;;;;;;;1647303;86;21097;-68
2022/09/11 05:57:55;;;;;;;2.05;1.40;;;;;;;;;;1681063;84;21017;-68
2022/09/11 06:00:21;;;;;;;1.15;1.15;;;;;;;;;;1643683;85;21077;-67
2022/09/11 06:02:53;;;;;;;1.55;1.35;;;;;;;;;;1683914;84;21089;-68
2022/09/11 06:05:19;;;;;;;1.32;1.17;;;;;;;;;;1674574;85;21005;-68
2022/09/11 06:07:47;;;;;;;1.52;1.40;;;;;;;;;;1681436;85;21012;-68
2022/09/11 06:10:14;;;;;;;1.57;1.42;;;;;;;;;;1673543;85;21556;-68
2022/09/11 06:12:40;;;;;;;1.35;1.25;;;;;;;;;;1645267;87;21067;-70
2022/09/11 06:15:07;;;;;;;1.40;1.30;;;;;;;;;;1677747;84;21034;-68
2022/09/11 06:17:34;;;;;;;2.95;1.50;;;;;;;;;;1680927;85;21045;-69
2022/09/11 06:20:00;;;;;;;1.40;1.30;;;;;;;;;;1677052;84;21542;-71
2022/09/11 06:22:28;;;;;;;2.70;1.52;;;;;;;;;;1685077;84;20994;-67
2022/09/11 06:24:54;;;;;;;1.62;1.50;;;;;;;;;;1663642;85;21043;-66
2022/09/11 06:27:20;;;;;;;1.90;1.67;;;;;;;;;;1637760;87;21099;-67
2022/09/11 06:29:49;;;;;;;1.60;1.50;;;;;;;;;;1654555;86;21060;-67
2022/09/11 06:32:16;;;;;;;1.95;1.42;;;;;;;;;;1651812;85;21062;-66
2022/09/11 06:34:43;;;;;;;2.08;1.60;;;;;;;;;;1677466;85;21039;-66
2022/09/11 06:37:11;;;;;;;1.95;1.55;;;;;;;;;;1655733;85;21589;-66
2022/09/11 06:39:38;;;;;;;1.70;1.60;;;;;;;;;;1676217;85;21096;-66
2022/09/11 06:42:06;;;;;;;2.47;1.60;;;;;;;;;;1651694;86;21568;-66
2022/09/11 06:44:34;;;;;;;1.72;1.50;;;;;;;;;;1679336;85;21009;-66
2022/09/11 06:47:00;;;;;;;4.67;3.20;;;;;;;;;;1661041;86;21029;-66
2022/09/11 06:49:27;;;;;;;6.85;4.55;;;;;;;;;;1660241;85;21025;-66
2022/09/11 06:52:11;;;;;;;3.00;2.20;;;;;;;;;;1661174;85;21048;-66
2022/09/11 06:54:38;;;;;;;3.60;1.90;;;;;;;;;;1658242;85;21575;-66
2022/09/11 06:57:06;;;;;;;2.50;1.80;;;;;;;;;;1653927;86;21555;-66
2022/09/11 06:59:32;;;;;;;3.15;1.90;;;;;;;;;;1658004;86;21033;-66
2022/09/11 07:16:32;;;;;;;2.83;1.98;;;;;;;;;;1784246;79;23579;-70
2022/09/11 07:18:59;;;;;;;3.05;2.15;;;;;;;;;;1789757;78;21090;-66
2022/09/11 07:21:26;;;;;;;3.60;2.35;;;;;;;;;;1795085;78;21036;-66
2022/09/11 07:23:55;;;;;;;2.72;2.20;;;;;;;;;;1787228;79;21066;-67
2022/09/11 07:26:22;;;;;;;4.60;2.00;;;;;;;;;;1791350;78;21042;-66
2022/09/11 07:28:51;;;;;;;2.95;2.20;;;;;;;;;;1791643;78;22192;-66
2022/09/11 07:31:19;;;;;;;2.72;2.20;;;;;;;;;;1793156;78;21071;-70
2022/09/11 07:33:46;;;;;;;2.72;2.17;;;;;;;;;;1791370;78;21103;-74
2022/09/11 07:36:15;;;;;;;2.67;2.00;;;;;;;;;;1809838;78;21440;-72
2022/09/11 07:38:42;;;;;;;2.45;2.10;;;;;;;;;;1790414;80;20968;-71
2022/09/11 07:41:09;;;;;;;3.70;3.05;;;;;;;;;;1790406;78;21017;-72
2022/09/11 07:43:37;;;;;;;3.30;2.40;;;;;;;;;;1804100;78;20985;-80
2022/09/11 07:46:04;;;;;;;2.87;2.22;;;;;;;;;;1784850;78;21050;-79
2022/09/11 07:48:32;;;;;;;2.42;2.22;;;;;;;;;;1794001;78;21028;-80
2022/09/11 07:51:01;;;;;;;2.27;2.05;;;;;;;;;;1790736;79;21060;-75
2022/09/11 07:53:30;;;;;;;2.77;2.20;;;;;;;;;;1810497;79;20988;-74
2022/09/11 07:55:58;;;;;;;3.20;2.30;;;;;;;;;;1818226;79;21029;-74
2022/09/11 07:58:24;;;;;;;2.72;2.40;;;;;;;;;;1792044;78;21091;-75
2022/09/11 08:00:52;;;;;;;2.83;2.52;;;;;;;;;;1799768;78;21087;-77
2022/09/11 08:03:19;;;;;;;3.17;2.35;;;;;;;;;;1796771;79;21575;-76
2022/09/11 08:05:46;;;;;;;3.33;2.40;;;;;;;;;;1816433;78;21044;-77
2022/09/11 08:08:12;;;;;;;2.90;2.60;;;;;;;;;;1826641;78;21057;-76
2022/09/11 08:10:39;;;;;;;3.47;2.95;;;;;;;;;;1826485;78;21072;-75
2022/09/11 08:13:06;;;;;;;2.92;2.50;;;;;;;;;;1791672;78;21063;-78
2022/09/11 08:15:32;;;;;;;3.10;2.70;;;;;;;;;;1805511;78;21420;-78
2022/09/11 08:17:59;;;;;;;2.98;2.67;;;;;;;;;;1800747;78;21048;-75
2022/09/11 08:20:25;;;;;;;3.05;2.65;;;;;;;;;;1802128;78;21012;-76
2022/09/11 08:22:51;;;;;;;3.60;2.80;;;;;;;;;;1810562;78;21051;-77
2022/09/11 08:25:18;;;;;;;3.40;2.80;;;;;;;;;;1800900;78;21058;-75
2022/09/11 08:27:44;;;;;;;2.90;2.33;;;;;;;;;;1797503;80;21042;-78
2022/09/11 08:30:13;;;;;;;3.35;2.70;;;;;;;;;;1812873;78;21055;-73
2022/09/11 08:32:41;;;;;;;3.47;2.22;;;;;;;;;;1784205;78;21036;-76
2022/09/11 08:35:08;;;;;;;2.72;2.35;;;;;;;;;;1805984;78;21069;-79
2022/09/11 08:37:35;;;;;;;3.95;2.50;;;;;;;;;;1804482;78;22029;-75
2022/09/11 08:40:04;;;;;;;3.20;2.33;;;;;;;;;;1795899;79;21075;-74
2022/09/11 08:42:31;;;;;;;2.75;2.40;;;;;;;;;;1807926;79;20953;-73
2022/09/11 08:44:58;;;;;;;3.20;2.47;;;;;;;;;;1807269;78;21016;-69
2022/09/11 08:47:35;;;;;;;3.60;2.85;;;;;;;;;;1807403;79;21063;-71
2022/09/11 08:50:03;;;;;;;4.50;3.00;;;;;;;;;;1807762;79;20983;-69
2022/09/11 08:52:31;;;;;;;3.77;2.47;;;;;;;;;;1800741;78;21106;-70
2022/09/11 08:54:57;;;;;;;3.05;2.65;;;;;;;;;;1800630;78;21004;-70
2022/09/11 08:57:35;;;;;;;4.78;2.85;;;;;;;;;;1804142;78;21055;-70
2022/09/11 09:00:09;;;;;;;3.65;2.95;;;;;;;;;;1733370;81;21115;-70
2022/09/11 09:02:55;;;;;;;3.60;3.00;;;;;;;;;;1732961;82;21443;-70
2022/09/11 09:05:25;;;;;;;3.70;2.77;;;;;;;;;;1742262;81;21531;-71
2022/09/11 09:08:06;;;;;;;3.75;2.98;;;;;;;;;;1776345;79;21033;-69
2022/09/11 09:10:52;;;;;;;3.95;3.20;;;;;;;;;;1748280;81;21104;-70
2022/09/11 09:13:29;;;;;;;4.03;3.27;;;;;;;;;;1737733;82;21056;-70
2022/09/11 09:16:04;;;;;;;3.95;3.27;;;;;;;;;;1743144;81;21100;-70
2022/09/11 09:18:41;;;;;;;3.65;3.10;;;;;;;;;;1758723;80;21113;-71
2022/09/11 09:21:13;;;;;;;5.17;3.22;;;;;;;;;;1754146;80;21083;-70
2022/09/11 09:23:41;;;;;;;4.22;3.60;;;;;;;;;;1732956;80;21000;-70
2022/09/11 09:26:09;;;;;;;4.37;3.50;;;;;;;;;;1735410;82;21049;-70
2022/09/11 09:28:37;;;;;;;4.83;3.47;;;;;;;;;;1754221;82;21080;-71
2022/09/11 09:31:05;;;;;;;4.55;3.50;;;;;;;;;;1742690;81;21022;-71
2022/09/11 09:33:36;;;;;;;4.22;3.58;;;;;;;;;;1730027;81;21045;-70
2022/09/11 09:36:12;;;;;;;3.87;3.42;;;;;;;;;;1775690;80;21020;-70
2022/09/11 09:38:38;;;;;;;3.98;3.37;;;;;;;;;;1737112;81;21012;-69
2022/09/11 09:41:06;;;;;;;4.25;3.62;;;;;;;;;;1747514;81;21535;-69
2022/09/11 09:43:34;;;;;;;4.60;3.75;;;;;;;;;;1739018;81;21020;-70
2022/09/11 09:46:05;;;;;;;4.67;4.05;;;;;;;;;;1742588;82;21084;-70
2022/09/11 09:48:32;;;;;;;4.53;3.72;;;;;;;;;;1750088;81;21478;-70
2022/09/11 09:50:58;;;;;;;3.83;3.15;;;;;;;;;;1757595;80;21004;-69
2022/09/11 09:53:33;;;;;;;4.42;3.70;;;;;;;;;;1743384;80;21081;-69
2022/09/11 09:55:59;;;;;;;5.30;3.50;;;;;;;;;;1743960;80;21064;-69
2022/09/11 09:58:26;;;;;;;4.58;3.60;;;;;;;;;;1748608;80;21050;-69
2022/09/11 10:00:52;;;;;;;4.90;3.85;;;;;;;;;;1759574;80;21560;-69
2022/09/11 10:03:22;;;;;;;4.35;3.47;;;;;;;;;;1762939;81;21071;-69
2022/09/11 10:05:49;;;;;;;4.33;3.70;;;;;;;;;;1723137;81;21017;-70
2022/09/11 10:08:25;;;;;;;4.60;3.72;;;;;;;;;;1756304;80;21030;-69
2022/09/11 10:10:56;;;;;;;4.55;3.72;;;;;;;;;;1761504;80;22221;-69
2022/09/11 10:13:23;;;;;;;4.47;3.92;;;;;;;;;;1760180;80;21133;-70
2022/09/11 10:15:54;;;;;;;4.80;3.85;;;;;;;;;;1758492;80;21017;-70
2022/09/11 10:18:34;;;;;;;5.33;4.28;;;;;;;;;;1744469;80;21044;-68
2022/09/11 10:21:12;;;;;;;5.33;4.30;;;;;;;;;;1754098;80;21047;-67
2022/09/11 10:23:46;;;;;;;4.90;4.10;;;;;;;;;;1726044;82;21126;-68
2022/09/11 10:26:17;;;;;;;6.30;4.62;;;;;;;;;;1728592;82;21655;-67
2022/09/11 10:28:44;;;;;;;4.92;4.00;;;;;;;;;;1720297;82;21100;-68
2022/09/11 10:31:12;;;;;;;4.45;3.90;;;;;;;;;;1725757;81;21123;-68
2022/09/11 10:33:38;;;;;;;4.92;4.08;;;;;;;;;;1767612;80;21056;-68
2022/09/11 10:36:07;;;;;;;4.50;4.00;;;;;;;;;;1764482;80;21074;-67
2022/09/11 10:38:34;;;;;;;5.17;4.47;;;;;;;;;;1736113;81;21056;-67
2022/09/11 10:41:02;;;;;;;5.37;4.25;;;;;;;;;;1730552;81;20988;-68
2022/09/11 10:43:35;;;;;;;5.35;4.25;;;;;;;;;;1764501;80;20995;-67
2022/09/11 10:46:02;;;;;;;5.05;3.95;;;;;;;;;;1749162;81;21197;-68
2022/09/11 10:48:29;;;;;;;5.42;4.30;;;;;;;;;;1751469;81;21083;-67
2022/09/11 10:51:06;;;;;;;4.95;4.03;;;;;;;;;;1744126;80;21535;-67
2022/09/11 10:53:50;;;;;;;4.87;4.10;;;;;;;;;;1723372;81;21000;-67
2022/09/11 10:56:16;;;;;;;4.78;4.12;;;;;;;;;;1741629;81;21016;-67
2022/09/11 10:58:44;;;;;;;5.55;4.30;;;;;;;;;;1751901;81;21560;-67
2022/09/11 11:01:10;;;;;;;5.45;4.30;;;;;;;;;;1751265;81;20978;-66
2022/09/11 11:03:36;;;;;;;4.87;4.05;;;;;;;;;;1753101;80;21085;-67
2022/09/11 11:06:22;;;;;;;4.62;4.10;;;;;;;;;;1752186;81;21049;-72
2022/09/11 11:08:56;;;;;;;5.10;4.00;;;;;;;;;;1724249;82;21060;-71
2022/09/11 11:11:39;;;;;;;6.12;3.80;;;;;;;;;;1733808;82;21041;-72
2022/09/11 11:14:10;;;;;;;4.75;4.00;;;;;;;;;;1737113;81;21677;-71
2022/09/11 11:16:39;;;;;;;4.58;3.83;;;;;;;;;;1770667;80;21047;-71
2022/09/11 11:19:07;;;;;;;6.05;4.08;;;;;;;;;;1718047;82;21052;-72
2022/09/11 11:21:36;;;;;;;5.60;4.47;;;;;;;;;;1759686;81;20972;-73
2022/09/11 11:24:11;;;;;;;4.95;4.40;;;;;;;;;;1739179;80;21064;-72
2022/09/11 11:26:45;;;;;;;4.65;3.90;;;;;;;;;;1731040;83;21515;-72
2022/09/11 11:29:30;;;;;;;4.58;4.08;;;;;;;;;;1712810;84;21049;-71
2022/09/11 11:32:10;;;;;;;5.37;4.47;;;;;;;;;;1716616;82;21172;-71
2022/09/11 11:34:38;;;;;;;5.08;4.20;;;;;;;;;;1738087;82;21619;-71
2022/09/11 11:37:16;;;;;;;5.30;4.40;;;;;;;;;;1732926;82;21056;-72
2022/09/11 11:39:44;;;;;;;5.55;3.87;;;;;;;;;;1732304;81;21056;-72
2022/09/11 11:42:30;;;;;;;5.50;4.12;;;;;;;;;;1739700;81;21120;-72
2022/09/11 11:44:59;;;;;;;4.45;4.05;;;;;;;;;;1782538;80;21035;-73
2022/09/11 11:47:27;;;;;;;5.20;4.10;;;;;;;;;;1791705;79;21022;-72
2022/09/11 11:49:55;;;;;;;4.20;3.75;;;;;;;;;;1766238;80;21051;-72
2022/09/11 11:52:35;;;;;;;5.20;3.83;;;;;;;;;;1802448;79;21058;-71
2022/09/11 11:55:19;;;;;;;4.78;3.95;;;;;;;;;;1791714;79;21028;-72
2022/09/11 11:57:48;;;;;;;4.35;3.90;;;;;;;;;;1805876;79;22074;-70
2022/09/11 12:00:15;;;;;;;5.58;4.70;;;;;;;;;;1762849;80;21078;-71
2022/09/11 12:02:59;;;;;;;5.62;3.80;;;;;;;;;;1786600;80;20995;-72
2022/09/11 12:05:26;;;;;;;4.37;3.98;;;;;;;;;;1817062;79;20969;-72
2022/09/11 12:22:05;;;;;;;4.58;4.17;;;;;;;;;;1796009;79;22969;-71
2022/09/11 12:24:51;;;;;;;5.62;4.10;;;;;;;;;;1754890;81;21118;-72
2022/09/11 12:27:35;;;;;;;4.55;4.08;;;;;;;;;;1758680;80;21048;-72
2022/09/11 12:30:00;;;;;;;;;;;;;;;;;;1764340;81;21032;-73
2022/09/11 12:32:27;;;;;;;5.95;4.92;;;;;;;;;;1758159;81;20130;-73
2022/09/11 12:34:55;;;;;;;5.62;3.85;;;;;;;;;;1759867;81;21593;-75
2022/09/11 12:37:31;;;;;;;4.35;3.90;;;;;;;;;;1759155;81;20986;-75
2022/09/11 12:40:02;;;;;;;5.50;4.10;;;;;;;;;;1755833;80;21520;-76
2022/09/11 12:42:30;;;;;;;5.25;4.03;;;;;;;;;;1756334;81;22326;-75
2022/09/11 12:44:58;;;;;;;4.45;4.05;;;;;;;;;;1748152;81;21572;-74
2022/09/11 12:47:28;;;;;;;19.98;15.28;;;;;;;;;;1756948;80;20981;-71
2022/09/11 12:49:58;;;;;;;15.53;10.90;;;;;;;;;;1759386;80;21032;-71
2022/09/11 12:52:32;;;;;;;26.65;17.90;;;;;;;;;;1755466;82;21060;-72
2022/09/11 12:55:01;;;;;;;17.10;13.40;;;;;;;;;;1744232;81;21089;-70
2022/09/11 12:57:28;;;;;;;5.97;4.87;;;;;;;;;;1756291;81;20993;-71
2022/09/11 12:59:54;;;;;;;6.00;4.90;;;;;;;;;;1759266;81;20998;-71
2022/09/11 13:02:29;;;;;;;5.12;4.62;;;;;;;;;;1756948;80;21056;-70
2022/09/11 13:04:55;;;;;;;4.42;4.03;;;;;;;;;;1759870;80;21044;-71
2022/09/11 13:07:23;;;;;;;5.33;4.67;;;;;;;;;;1760350;81;21584;-70
2022/09/11 13:09:50;;;;;;;5.37;3.80;;;;;;;;;;1758592;81;21048;-67
2022/09/11 13:12:21;;;;;;;4.85;4.40;;;;;;;;;;1742559;81;21062;-68
2022/09/11 13:14:51;;;;;;;4.53;4.12;;;;;;;;;;1737471;80;21048;-69
2022/09/11 13:17:24;;;;;;;4.80;4.03;;;;;;;;;;1754412;80;21015;-68
2022/09/11 13:19:51;;;;;;;5.97;4.72;;;;;;;;;;1744914;81;21119;-71
2022/09/11 13:22:21;;;;;;;5.28;4.53;;;;;;;;;;1744235;81;21023;-71
2022/09/11 13:24:48;;;;;;;4.75;4.25;;;;;;;;;;1738890;82;21041;-71
2022/09/11 13:27:27;;;;;;;7.35;5.95;;;;;;;;;;1733123;82;20996;-70
2022/09/11 13:29:53;;;;;;;31.05;16.97;;;;;;;;;;1692131;84;21048;-71
2022/09/11 13:32:20;;;;;;;12.70;8.88;;;;;;;;;;1719480;82;21033;-71
2022/09/11 13:34:48;;;;;;;6.65;5.10;;;;;;;;;;1712530;82;21485;-70
2022/09/11 13:37:16;;;;;;;22.25;12.25;;;;;;;;;;1732838;82;21037;-70
2022/09/11 13:39:43;;;;;;;15.23;10.65;;;;;;;;;;1736627;82;21063;-71
2022/09/11 13:42:16;;;;;;;66.28;31.70;;;;;;;;;;1738735;82;21049;-70
2022/09/11 13:44:44;;;;;;;32.38;16.62;;;;;;;;;;1731722;82;20997;-69
2022/09/11 13:47:21;;;;;;;7.00;5.65;;;;;;;;;;1730538;82;21088;-70
2022/09/11 13:49:49;;;;;;;7.40;5.58;;;;;;;;;;1694078;84;21092;-71
2022/09/11 13:52:15;;;;;;;56.35;27.55;;;;;;;;;;1721556;82;21021;-69
2022/09/11 13:54:48;;;;;;;13.40;8.85;;;;;;;;;;1737813;82;21025;-72
2022/09/11 13:57:24;;;;;;;26.25;16.90;;;;;;;;;;1697375;84;21041;-70
2022/09/11 13:59:57;;;;;;;19.25;13.00;;;;;;;;;;1681832;84;21072;-70
2022/09/11 14:02:25;;;;;;;46.00;23.40;;;;;;;;;;1722714;82;21023;-69
2022/09/11 14:04:51;;;;;;;13.35;8.60;;;;;;;;;;1737850;82;21017;-68
2022/09/11 14:07:18;;;;;;;14.38;9.30;;;;;;;;;;1736725;82;21033;-69
2022/09/11 14:09:45;;;;;;;7.47;5.20;;;;;;;;;;1729606;81;21619;-70
2022/09/11 14:12:11;;;;;;;6.15;5.20;;;;;;;;;;1720084;82;21055;-69
2022/09/11 14:14:41;;;;;;;4.58;3.98;;;;;;;;;;1723492;82;21078;-68
2022/09/11 14:17:07;;;;;;;5.72;4.37;;;;;;;;;;1700736;82;21029;-68
2022/09/11 14:19:34;;;;;;;5.58;4.25;;;;;;;;;;1717659;82;21552;-68
2022/09/11 14:22:00;;;;;;;6.08;4.10;;;;;;;;;;1722377;82;21153;-69
2022/09/11 14:24:28;;;;;;;4.80;4.30;;;;;;;;;;1727949;82;21529;-70
2022/09/11 14:26:57;;;;;;;5.87;4.35;;;;;;;;;;1741675;82;21021;-71
2022/09/11 14:29:24;;;;;;;5.42;4.42;;;;;;;;;;1716262;82;20994;-68
2022/09/11 14:31:52;;;;;;;4.50;4.10;;;;;;;;;;1698875;83;21514;-66
2022/09/11 14:34:20;;;;;;;4.47;3.95;;;;;;;;;;1687247;84;21370;-65
2022/09/11 14:36:48;;;;;;;5.12;3.75;;;;;;;;;;1694829;84;21040;-66
2022/09/11 14:39:19;;;;;;;6.55;5.40;;;;;;;;;;1697958;84;21120;-67
2022/09/11 14:41:46;;;;;;;6.60;5.97;;;;;;;;;;1687230;84;21563;-66
2022/09/11 14:44:14;;;;;;;6.22;4.60;;;;;;;;;;1685480;84;21087;-66
2022/09/11 14:46:41;;;;;;;5.05;4.55;;;;;;;;;;1727379;82;21193;-67
2022/09/11 14:49:08;;;;;;;4.40;3.92;;;;;;;;;;1705332;84;21075;-66
2022/09/11 14:51:35;;;;;;;4.28;3.62;;;;;;;;;;1700643;84;21032;-66
2022/09/11 14:54:02;;;;;;;5.35;3.70;;;;;;;;;;1705887;84;21087;-66
2022/09/11 14:56:28;;;;;;;7.35;5.65;;;;;;;;;;1701740;83;21547;-65
2022/09/11 14:58:54;;;;;;;6.47;4.90;;;;;;;;;;1700010;83;21004;-66
2022/09/11 15:01:20;;;;;;;6.78;5.03;;;;;;;;;;1734740;82;21468;-66
2022/09/11 15:03:46;;;;;;;5.67;4.80;;;;;;;;;;1739460;82;21540;-66
2022/09/11 15:06:14;;;;;;;9.95;6.65;;;;;;;;;;1726960;82;21028;-67
2022/09/11 15:08:41;;;;;;;6.30;4.70;;;;;;;;;;1718250;82;21017;-66
2022/09/11 15:11:07;;;;;;;5.05;4.50;;;;;;;;;;1728785;82;20973;-66
2022/09/11 15:13:34;;;;;;;9.70;6.37;;;;;;;;;;1729525;82;21024;-67
2022/09/11 15:16:01;;;;;;;8.58;6.08;;;;;;;;;;1730338;82;21052;-67
2022/09/11 15:18:27;;;;;;;57.90;25.77;;;;;;;;;;1735311;82;21018;-68
2022/09/11 15:20:54;;;;;;;27.82;15.38;;;;;;;;;;1733819;82;22133;-66
2022/09/11 15:23:20;;;;;;;11.20;8.05;;;;;;;;;;1728880;82;20997;-68
2022/09/11 15:25:46;;;;;;;8.43;6.40;;;;;;;;;;1728889;82;21093;-68